sensor_id;sensor_type;location;lat;lon;timestamp;pressure;altitude;pressure_sealevel;temperature;humidity
47761;BME280;33524;55.434;38.520;2023-03-20T00:00:33;100902.50;;;-6.53;88.48
47761;BME280;33524;55.434;38.520;2023-03-20T00:03:01;100902.50;;;-6.58;90.05
47761;BME280;33524;55.434;38.520;2023-03-20T00:05:29;100893.16;;;-6.45;89.75
47761;BME280;33524;55.434;38.520;2023-03-20T00:07:56;100889.81;;;-6.35;89.81
47761;BME280;33524;55.434;38.520;2023-03-20T00:10:35;100881.34;;;-6.26;90.27
47761;BME280;33524;55.434;38.520;2023-03-20T00:13:03;100881.34;;;-6.18;90.27
47761;BME280;33524;55.434;38.520;2023-03-20T00:15:36;100877.16;;;-6.05;89.93
47761;BME280;33524;55.434;38.520;2023-03-20T00:18:14;100873.75;;;-6.01;90.41
47761;BME280;33524;55.434;38.520;2023-03-20T00:20:41;100857.53;;;-5.91;90.92
47761;BME280;33524;55.434;38.520;2023-03-20T00:23:08;100864.37;;;-5.76;90.80
47761;BME280;33524;55.434;38.520;2023-03-20T00:25:37;100866.94;;;-5.69;90.65
47761;BME280;33524;55.434;38.520;2023-03-20T00:30:52;100854.16;;;-5.53;90.87
47761;BME280;33524;55.434;38.520;2023-03-20T00:33:20;100856.72;;;-5.42;91.26
47761;BME280;33524;55.434;38.520;2023-03-20T00:35:48;100853.31;;;-5.38;91.46
47761;BME280;33524;55.434;38.520;2023-03-20T00:38:14;100861.84;;;-5.36;91.24
47761;BME280;33524;55.434;38.520;2023-03-20T00:40:41;100861.88;;;-5.45;91.07
47761;BME280;33524;55.434;38.520;2023-03-20T00:43:10;100859.31;;;-5.33;91.10
47761;BME280;33524;55.434;38.520;2023-03-20T00:45:39;100860.16;;;-5.22;91.38
47761;BME280;33524;55.434;38.520;2023-03-20T00:48:12;100856.72;;;-5.12;91.70
47761;BME280;33524;55.434;38.520;2023-03-20T00:50:39;100830.22;;;-5.21;91.38
47761;BME280;33524;55.434;38.520;2023-03-20T00:53:10;100853.28;;;-5.08;91.61
47761;BME280;33524;55.434;38.520;2023-03-20T00:55:38;100853.31;;;-5.14;91.40
47761;BME280;33524;55.434;38.520;2023-03-20T00:58:05;100849.91;;;-5.25;90.94
47761;BME280;33524;55.434;38.520;2023-03-20T01:00:40;100849.91;;;-5.37;90.34
47761;BME280;33524;55.434;38.520;2023-03-20T01:03:18;100836.22;;;-5.49;89.67
47761;BME280;33524;55.434;38.520;2023-03-20T01:05:47;100842.19;;;-5.62;88.98
47761;BME280;33524;55.434;38.520;2023-03-20T01:08:18;100843.06;;;-5.60;89.05
47761;BME280;33524;55.434;38.520;2023-03-20T01:10:51;100846.34;;;-4.59;89.02
47761;BME280;33524;55.434;38.520;2023-03-20T01:13:28;100852.41;;;-5.00;85.33
47761;BME280;33524;55.434;38.520;2023-03-20T01:15:56;100852.34;;;-4.62;86.70
47761;BME280;33524;55.434;38.520;2023-03-20T01:18:25;100839.16;;;-3.83;84.02
47761;BME280;33524;55.434;38.520;2023-03-20T01:20:52;100840.50;;;-3.30;80.84
47761;BME280;33524;55.434;38.520;2023-03-20T01:23:20;100826.87;;;-3.46;79.82
47761;BME280;33524;55.434;38.520;2023-03-20T01:25:48;100847.13;;;-4.31;80.53
47761;BME280;33524;55.434;38.520;2023-03-20T01:28:19;100841.72;;;-3.87;82.51
47761;BME280;33524;55.434;38.520;2023-03-20T01:30:47;100840.03;;;-3.86;80.82
47761;BME280;33524;55.434;38.520;2023-03-20T01:33:18;100836.13;;;-4.75;80.68
47761;BME280;33524;55.434;38.520;2023-03-20T01:35:46;100830.81;;;-4.19;83.81
47761;BME280;33524;55.434;38.520;2023-03-20T01:38:19;100835.88;;;-4.09;80.24
47761;BME280;33524;55.434;38.520;2023-03-20T01:43:21;100844.72;;;-4.87;83.49
47761;BME280;33524;55.434;38.520;2023-03-20T01:51:20;100817.38;;;-6.15;88.52
47761;BME280;33524;55.434;38.520;2023-03-20T01:53:53;100831.06;;;-6.01;89.71
47761;BME280;33524;55.434;38.520;2023-03-20T01:56:23;100832.78;;;-5.97;90.27
47761;BME280;33524;55.434;38.520;2023-03-20T01:58:57;100831.91;;;-5.99;90.42
47761;BME280;33524;55.434;38.520;2023-03-20T02:01:26;100819.91;;;-6.20;90.93
47761;BME280;33524;55.434;38.520;2023-03-20T02:03:54;100833.47;;;-6.44;93.54
47761;BME280;33524;55.434;38.520;2023-03-20T02:06:23;100819.87;;;-6.27;93.25
47761;BME280;33524;55.434;38.520;2023-03-20T02:08:53;100825.84;;;-6.29;92.49
47761;BME280;33524;55.434;38.520;2023-03-20T02:11:23;100821.62;;;-6.22;91.85
47761;BME280;33524;55.434;38.520;2023-03-20T02:13:52;100813.94;;;-6.23;91.11
47761;BME280;33524;55.434;38.520;2023-03-20T02:16:20;100823.28;;;-6.33;90.96
47761;BME280;33524;55.434;38.520;2023-03-20T02:18:50;100815.56;;;-6.41;91.08
47761;BME280;33524;55.434;38.520;2023-03-20T02:21:44;100806.97;;;-6.55;91.50
47761;BME280;33524;55.434;38.520;2023-03-20T02:27:12;100807.72;;;-6.79;93.40
47761;BME280;33524;55.434;38.520;2023-03-20T02:30:09;100809.50;;;-6.69;91.34
47761;BME280;33524;55.434;38.520;2023-03-20T02:38:29;100784.94;;;-5.67;92.09
47761;BME280;33524;55.434;38.520;2023-03-20T02:44:20;100808.84;;;-5.85;82.77
47761;BME280;33524;55.434;38.520;2023-03-20T02:49:56;100813.09;;;-6.10;87.03
47761;BME280;33524;55.434;38.520;2023-03-20T02:55:40;100820.84;;;-5.27;88.97
47761;BME280;33524;55.434;38.520;2023-03-20T02:58:19;100787.53;;;-5.96;84.57
47761;BME280;33524;55.434;38.520;2023-03-20T03:01:09;100805.44;;;-5.84;85.91
47761;BME280;33524;55.434;38.520;2023-03-20T03:03:57;100813.00;;;-6.41;86.72
47761;BME280;33524;55.434;38.520;2023-03-20T03:06:29;100818.22;;;-6.18;89.20
47761;BME280;33524;55.434;38.520;2023-03-20T03:09:03;100819.81;;;-6.51;89.27
47761;BME280;33524;55.434;38.520;2023-03-20T03:11:35;100820.56;;;-6.68;89.39
47761;BME280;33524;55.434;38.520;2023-03-20T03:14:05;100820.34;;;-7.05;90.51
47761;BME280;33524;55.434;38.520;2023-03-20T03:16:35;100816.00;;;-7.23;92.55
47761;BME280;33524;55.434;38.520;2023-03-20T03:19:21;100813.50;;;-7.14;93.62
47761;BME280;33524;55.434;38.520;2023-03-20T03:21:50;100788.00;;;-6.99;91.22
47761;BME280;33524;55.434;38.520;2023-03-20T03:27:02;100806.53;;;-7.32;90.03
47761;BME280;33524;55.434;38.520;2023-03-20T03:29:33;100799.66;;;-7.42;90.71
47761;BME280;33524;55.434;38.520;2023-03-20T03:32:05;100786.78;;;-7.58;90.42
47761;BME280;33524;55.434;38.520;2023-03-20T03:34:34;100790.97;;;-7.63;91.68
47761;BME280;33524;55.434;38.520;2023-03-20T03:37:06;100793.59;;;-7.58;93.44
47761;BME280;33524;55.434;38.520;2023-03-20T03:39:49;100763.50;;;-6.57;94.34
47761;BME280;33524;55.434;38.520;2023-03-20T03:42:38;100785.69;;;-6.50;90.62
47761;BME280;33524;55.434;38.520;2023-03-20T03:45:15;100779.69;;;-6.56;87.71
47761;BME280;33524;55.434;38.520;2023-03-20T03:47:49;100785.63;;;-6.62;87.76
47761;BME280;33524;55.434;38.520;2023-03-20T03:50:23;100766.00;;;-6.74;88.26
47761;BME280;33524;55.434;38.520;2023-03-20T03:52:58;100782.06;;;-6.96;87.70
47761;BME280;33524;55.434;38.520;2023-03-20T03:55:33;100773.88;;;-5.66;90.73
47761;BME280;33524;55.434;38.520;2023-03-20T03:58:10;100772.16;;;-6.02;85.31
47761;BME280;33524;55.434;38.520;2023-03-20T04:00:41;100770.38;;;-6.40;87.30
47761;BME280;33524;55.434;38.520;2023-03-20T04:03:11;100777.03;;;-6.76;88.50
47761;BME280;33524;55.434;38.520;2023-03-20T04:05:41;100775.47;;;-6.46;89.50
47761;BME280;33524;55.434;38.520;2023-03-20T04:08:10;100781.34;;;-6.64;88.11
47761;BME280;33524;55.434;38.520;2023-03-20T04:10:39;100773.66;;;-6.71;88.28
47761;BME280;33524;55.434;38.520;2023-03-20T04:13:07;100748.00;;;-6.89;88.57
47761;BME280;33524;55.434;38.520;2023-03-20T04:15:34;100777.06;;;-6.68;90.28
47761;BME280;33524;55.434;38.520;2023-03-20T04:18:02;100771.19;;;-6.46;90.48
47761;BME280;33524;55.434;38.520;2023-03-20T04:20:29;100767.88;;;-6.11;89.56
47761;BME280;33524;55.434;38.520;2023-03-20T04:22:56;100763.50;;;-6.43;88.62
47761;BME280;33524;55.434;38.520;2023-03-20T04:25:24;100766.94;;;-6.44;88.85
47761;BME280;33524;55.434;38.520;2023-03-20T04:27:52;100767.78;;;-6.43;89.28
47761;BME280;33524;55.434;38.520;2023-03-20T04:30:20;100770.34;;;-6.42;89.18
47761;BME280;33524;55.434;38.520;2023-03-20T04:32:50;100761.84;;;-6.33;89.04
47761;BME280;33524;55.434;38.520;2023-03-20T04:35:16;100769.53;;;-6.32;89.42
47761;BME280;33524;55.434;38.520;2023-03-20T04:37:44;100766.13;;;-6.27;90.10
47761;BME280;33524;55.434;38.520;2023-03-20T04:40:11;100766.13;;;-6.24;90.91
47761;BME280;33524;55.434;38.520;2023-03-20T04:42:40;100772.13;;;-6.19;90.37
47761;BME280;33524;55.434;38.520;2023-03-20T04:45:08;100774.69;;;-6.10;90.11
47761;BME280;33524;55.434;38.520;2023-03-20T04:47:35;100772.16;;;-5.98;89.95
47761;BME280;33524;55.434;38.520;2023-03-20T04:50:02;100764.44;;;-5.85;89.61
47761;BME280;33524;55.434;38.520;2023-03-20T04:52:30;100760.16;;;-5.85;89.72
47761;BME280;33524;55.434;38.520;2023-03-20T04:54:56;100766.16;;;-5.57;89.21
47761;BME280;33524;55.434;38.520;2023-03-20T04:57:23;100771.28;;;-5.54;88.88
47761;BME280;33524;55.434;38.520;2023-03-20T04:59:52;100763.50;;;-4.97;88.55
47761;BME280;33524;55.434;38.520;2023-03-20T05:02:18;100765.81;;;-4.37;86.46
47761;BME280;33524;55.434;38.520;2023-03-20T05:04:45;100760.47;;;-4.00;85.13
47761;BME280;33524;55.434;38.520;2023-03-20T05:07:13;100756.56;;;-3.42;82.82
47761;BME280;33524;55.434;38.520;2023-03-20T05:09:41;100767.56;;;-3.26;81.59
47761;BME280;33524;55.434;38.520;2023-03-20T05:12:08;100760.31;;;-2.87;80.18
47761;BME280;33524;55.434;38.520;2023-03-20T05:14:36;100761.63;;;-2.55;78.44
47761;BME280;33524;55.434;38.520;2023-03-20T05:17:03;100757.09;;;-2.38;77.70
47761;BME280;33524;55.434;38.520;2023-03-20T05:19:30;100752.59;;;-2.22;76.76
47761;BME280;33524;55.434;38.520;2023-03-20T05:21:57;100749.94;;;-2.17;76.71
47761;BME280;33524;55.434;38.520;2023-03-20T05:24:25;100757.41;;;-1.99;76.31
47761;BME280;33524;55.434;38.520;2023-03-20T05:26:54;100724.06;;;-2.08;76.02
47761;BME280;33524;55.434;38.520;2023-03-20T05:29:22;100747.75;;;-1.86;75.68
47761;BME280;33524;55.434;38.520;2023-03-20T05:31:53;100758.87;;;-1.81;75.74
47761;BME280;33524;55.434;38.520;2023-03-20T05:34:23;100744.12;;;-1.71;75.33
47761;BME280;33524;55.434;38.520;2023-03-20T05:36:50;100736.84;;;-2.00;75.98
47761;BME280;33524;55.434;38.520;2023-03-20T05:39:17;100746.53;;;-2.18;77.54
47761;BME280;33524;55.434;38.520;2023-03-20T05:41:44;100759.59;;;-2.30;78.37
47761;BME280;33524;55.434;38.520;2023-03-20T05:44:13;100758.69;;;-1.69;76.71
47761;BME280;33524;55.434;38.520;2023-03-20T05:46:42;100758.06;;;-1.32;75.15
47761;BME280;33524;55.434;38.520;2023-03-20T05:49:10;100748.59;;;-1.31;74.98
47761;BME280;33524;55.434;38.520;2023-03-20T05:51:38;100754.03;;;-1.02;74.13
47761;BME280;33524;55.434;38.520;2023-03-20T05:54:04;100754.97;;;-1.52;76.50
47761;BME280;33524;55.434;38.520;2023-03-20T05:56:32;100752.25;;;-0.98;74.39
47761;BME280;33524;55.434;38.520;2023-03-20T05:58:59;100758.44;;;-0.62;73.15
47761;BME280;33524;55.434;38.520;2023-03-20T06:01:26;100749.13;;;-0.28;72.87
47761;BME280;33524;55.434;38.520;2023-03-20T06:03:54;100742.47;;;-0.80;77.24
47761;BME280;33524;55.434;38.520;2023-03-20T06:06:23;100760.56;;;-0.82;78.26
47761;BME280;33524;55.434;38.520;2023-03-20T06:08:49;100746.38;;;-0.21;74.60
47761;BME280;33524;55.434;38.520;2023-03-20T06:11:16;100758.41;;;0.18;73.77
47761;BME280;33524;55.434;38.520;2023-03-20T06:13:43;100752.50;;;0.47;73.77
47761;BME280;33524;55.434;38.520;2023-03-20T06:16:10;100749.31;;;0.37;74.17
47761;BME280;33524;55.434;38.520;2023-03-20T06:18:37;100752.88;;;0.68;72.89
47761;BME280;33524;55.434;38.520;2023-03-20T06:21:05;100725.31;;;0.98;71.76
47761;BME280;33524;55.434;38.520;2023-03-20T06:23:32;100750.41;;;0.96;73.41
47761;BME280;33524;55.434;38.520;2023-03-20T06:25:59;100747.28;;;0.50;77.77
47761;BME280;33524;55.434;38.520;2023-03-20T06:28:26;100750.75;;;0.82;76.25
47761;BME280;33524;55.434;38.520;2023-03-20T06:30:54;100754.50;;;0.37;80.61
47761;BME280;33524;55.434;38.520;2023-03-20T06:33:21;100749.66;;;0.24;83.16
47761;BME280;33524;55.434;38.520;2023-03-20T06:35:50;100752.50;;;0.13;82.87
47761;BME280;33524;55.434;38.520;2023-03-20T06:38:16;100743.31;;;-0.01;83.33
47761;BME280;33524;55.434;38.520;2023-03-20T06:40:43;100746.47;;;0.12;83.14
47761;BME280;33524;55.434;38.520;2023-03-20T06:43:11;100741.81;;;0.27;83.11
47761;BME280;33524;55.434;38.520;2023-03-20T06:45:40;100747.00;;;1.25;78.61
47761;BME280;33524;55.434;38.520;2023-03-20T06:48:08;100735.84;;;1.23;78.08
47761;BME280;33524;55.434;38.520;2023-03-20T06:50:35;100731.56;;;1.22;78.80
47761;BME280;33524;55.434;38.520;2023-03-20T06:53:02;100733.94;;;1.59;76.52
47761;BME280;33524;55.434;38.520;2023-03-20T06:55:31;100736.25;;;1.67;75.65
47761;BME280;33524;55.434;38.520;2023-03-20T06:57:58;100733.34;;;2.06;76.00
47761;BME280;33524;55.434;38.520;2023-03-20T07:00:25;100735.31;;;3.01;70.55
47761;BME280;33524;55.434;38.520;2023-03-20T07:02:52;100731.56;;;3.34;67.79
47761;BME280;33524;55.434;38.520;2023-03-20T07:05:20;100732.44;;;2.86;69.29
47761;BME280;33524;55.434;38.520;2023-03-20T07:07:47;100731.09;;;3.46;66.64
47761;BME280;33524;55.434;38.520;2023-03-20T07:10:14;100731.56;;;2.85;68.41
47761;BME280;33524;55.434;38.520;2023-03-20T07:12:41;100732.56;;;2.56;70.67
47761;BME280;33524;55.434;38.520;2023-03-20T07:15:09;100732.09;;;2.45;69.52
47761;BME280;33524;55.434;38.520;2023-03-20T07:17:37;100727.78;;;2.43;68.96
47761;BME280;33524;55.434;38.520;2023-03-20T07:20:04;100733.13;;;2.66;68.67
47761;BME280;33524;55.434;38.520;2023-03-20T07:22:31;100733.19;;;4.26;64.50
47761;BME280;33524;55.434;38.520;2023-03-20T07:25:00;100706.34;;;3.81;64.44
47761;BME280;33524;55.434;38.520;2023-03-20T07:27:27;100724.22;;;4.54;60.95
47761;BME280;33524;55.434;38.520;2023-03-20T07:29:54;100720.78;;;4.53;59.41
47761;BME280;33524;55.434;38.520;2023-03-20T07:32:22;100713.41;;;5.23;63.98
47761;BME280;33524;55.434;38.520;2023-03-20T07:34:49;100710.09;;;5.38;59.08
47761;BME280;33524;55.434;38.520;2023-03-20T07:37:16;100709.91;;;5.98;59.82
47761;BME280;33524;55.434;38.520;2023-03-20T07:39:47;100715.06;;;6.00;54.28
47761;BME280;33524;55.434;38.520;2023-03-20T07:42:15;100715.37;;;6.11;52.12
47761;BME280;33524;55.434;38.520;2023-03-20T07:44:43;100713.72;;;6.62;58.21
47761;BME280;33524;55.434;38.520;2023-03-20T07:47:10;100712.78;;;6.11;52.32
47761;BME280;33524;55.434;38.520;2023-03-20T07:49:36;100706.31;;;6.01;55.41
47761;BME280;33524;55.434;38.520;2023-03-20T07:52:06;100701.16;;;6.69;61.71
47761;BME280;33524;55.434;38.520;2023-03-20T07:54:33;100704.75;;;5.60;52.48
47761;BME280;33524;55.434;38.520;2023-03-20T07:57:00;100696.47;;;5.51;52.95
47761;BME280;33524;55.434;38.520;2023-03-20T07:59:27;100708.03;;;6.19;52.69
47761;BME280;33524;55.434;38.520;2023-03-20T08:01:53;100699.06;;;6.93;50.79
47761;BME280;33524;55.434;38.520;2023-03-20T08:04:20;100708.19;;;6.51;49.87
47761;BME280;33524;55.434;38.520;2023-03-20T08:06:49;100703.91;;;6.33;49.98
47761;BME280;33524;55.434;38.520;2023-03-20T08:09:17;100709.00;;;6.69;51.30
47761;BME280;33524;55.434;38.520;2023-03-20T08:11:44;100714.63;;;6.61;49.64
47761;BME280;33524;55.434;38.520;2023-03-20T08:14:11;100696.56;;;7.07;49.84
47761;BME280;33524;55.434;38.520;2023-03-20T08:16:38;100699.31;;;6.89;51.54
47761;BME280;33524;55.434;38.520;2023-03-20T08:19:05;100694.00;;;7.71;56.68
47761;BME280;33524;55.434;38.520;2023-03-20T08:21:32;100693.66;;;7.77;46.78
47761;BME280;33524;55.434;38.520;2023-03-20T08:23:58;100699.59;;;8.11;45.98
47761;BME280;33524;55.434;38.520;2023-03-20T08:26:26;100695.91;;;8.60;53.51
47761;BME280;33524;55.434;38.520;2023-03-20T08:28:53;100698.25;;;8.50;45.88
47761;BME280;33524;55.434;38.520;2023-03-20T08:31:19;100693.41;;;8.58;43.87
47761;BME280;33524;55.434;38.520;2023-03-20T08:33:46;100693.88;;;8.65;45.52
47761;BME280;33524;55.434;38.520;2023-03-20T08:36:14;100692.59;;;8.42;46.07
47761;BME280;33524;55.434;38.520;2023-03-20T08:38:42;100686.41;;;9.16;49.67
47761;BME280;33524;55.434;38.520;2023-03-20T08:41:08;100685.34;;;9.33;44.26
47761;BME280;33524;55.434;38.520;2023-03-20T08:43:35;100672.34;;;9.03;42.82
47761;BME280;33524;55.434;38.520;2023-03-20T08:46:02;100686.12;;;8.92;43.83
47761;BME280;33524;55.434;38.520;2023-03-20T08:48:29;100683.66;;;8.60;45.94
47761;BME280;33524;55.434;38.520;2023-03-20T08:50:56;100676.66;;;9.04;46.35
47761;BME280;33524;55.434;38.520;2023-03-20T08:53:23;100677.09;;;9.25;44.38
47761;BME280;33524;55.434;38.520;2023-03-20T08:55:51;100679.62;;;9.26;52.05
47761;BME280;33524;55.434;38.520;2023-03-20T08:58:19;100680.44;;;9.41;42.81
47761;BME280;33524;55.434;38.520;2023-03-20T09:00:46;100681.31;;;8.99;44.01
47761;BME280;33524;55.434;38.520;2023-03-20T09:03:14;100683.53;;;8.62;45.10
47761;BME280;33524;55.434;38.520;2023-03-20T09:05:44;100675.44;;;8.66;43.83
47761;BME280;33524;55.434;38.520;2023-03-20T09:08:11;100682.13;;;8.42;45.44
47761;BME280;33524;55.434;38.520;2023-03-20T09:10:38;100676.31;;;7.75;47.42
47761;BME280;33524;55.434;38.520;2023-03-20T09:13:06;100681.06;;;8.14;45.87
47761;BME280;33524;55.434;38.520;2023-03-20T09:15:53;100670.19;;;8.36;45.18
47761;BME280;33524;55.434;38.520;2023-03-20T09:18:21;100676.59;;;8.16;45.64
47761;BME280;33524;55.434;38.520;2023-03-20T09:20:48;100667.37;;;9.13;44.08
47761;BME280;33524;55.434;38.520;2023-03-20T09:23:15;100657.91;;;8.81;46.71
47761;BME280;33524;55.434;38.520;2023-03-20T09:25:42;100658.84;;;8.95;43.99
47761;BME280;33524;55.434;38.520;2023-03-20T09:28:08;100658.75;;;9.11;43.01
47761;BME280;33524;55.434;38.520;2023-03-20T09:30:35;100647.25;;;9.40;43.14
47761;BME280;33524;55.434;38.520;2023-03-20T09:33:02;100650.00;;;9.93;42.46
47761;BME280;33524;55.434;38.520;2023-03-20T09:35:29;100642.22;;;9.64;42.19
47761;BME280;33524;55.434;38.520;2023-03-20T09:37:56;100645.56;;;9.39;42.52
47761;BME280;33524;55.434;38.520;2023-03-20T09:40:25;100637.97;;;9.49;43.16
47761;BME280;33524;55.434;38.520;2023-03-20T09:44:07;100634.06;;;9.27;43.52
47761;BME280;33524;55.434;38.520;2023-03-20T09:46:10;100615.94;;;8.96;43.81
47761;BME280;33524;55.434;38.520;2023-03-20T09:49:04;100626.28;;;9.26;43.23
47761;BME280;33524;55.434;38.520;2023-03-20T09:51:56;100625.41;;;9.67;43.29
47761;BME280;33524;55.434;38.520;2023-03-20T09:54:32;100623.47;;;9.29;43.79
47761;BME280;33524;55.434;38.520;2023-03-20T09:57:23;100613.94;;;8.27;45.57
47761;BME280;33524;55.434;38.520;2023-03-20T09:59:56;100623.66;;;8.25;44.58
47761;BME280;33524;55.434;38.520;2023-03-20T10:02:39;100622.78;;;8.55;44.06
47761;BME280;33524;55.434;38.520;2023-03-20T10:05:25;100616.37;;;9.17;43.42
47761;BME280;33524;55.434;38.520;2023-03-20T10:07:58;100616.75;;;9.52;42.85
47761;BME280;33524;55.434;38.520;2023-03-20T10:10:36;100617.06;;;10.27;40.92
47761;BME280;33524;55.434;38.520;2023-03-20T10:15:47;100608.62;;;9.69;41.55
47761;BME280;33524;55.434;38.520;2023-03-20T10:18:26;100606.31;;;10.05;40.80
47761;BME280;33524;55.434;38.520;2023-03-20T10:21:04;100597.44;;;10.46;39.99
47761;BME280;33524;55.434;38.520;2023-03-20T10:23:42;100604.34;;;10.47;39.29
47761;BME280;33524;55.434;38.520;2023-03-20T10:26:15;100599.03;;;9.96;40.91
47761;BME280;33524;55.434;38.520;2023-03-20T10:28:54;100597.84;;;10.40;40.43
47761;BME280;33524;55.434;38.520;2023-03-20T10:31:44;100587.69;;;10.21;39.94
47761;BME280;33524;55.434;38.520;2023-03-20T10:34:19;100584.94;;;9.97;40.82
47761;BME280;33524;55.434;38.520;2023-03-20T10:37:14;100579.87;;;9.94;42.43
47761;BME280;33524;55.434;38.520;2023-03-20T10:39:56;100565.75;;;9.69;40.31
47761;BME280;33524;55.434;38.520;2023-03-20T10:42:33;100567.47;;;9.43;41.64
47761;BME280;33524;55.434;38.520;2023-03-20T10:45:07;100570.41;;;9.78;42.86
47761;BME280;33524;55.434;38.520;2023-03-20T10:47:45;100577.34;;;9.79;41.50
47761;BME280;33524;55.434;38.520;2023-03-20T10:50:17;100558.84;;;9.81;41.48
47761;BME280;33524;55.434;38.520;2023-03-20T10:52:47;100553.84;;;10.67;44.62
47761;BME280;33524;55.434;38.520;2023-03-20T10:55:18;100564.78;;;10.10;41.77
47761;BME280;33524;55.434;38.520;2023-03-20T10:57:54;100563.06;;;9.96;41.82
47761;BME280;33524;55.434;38.520;2023-03-20T11:00:25;100552.69;;;9.55;43.06
47761;BME280;33524;55.434;38.520;2023-03-20T11:02:52;100557.06;;;9.94;41.83
47761;BME280;33524;55.434;38.520;2023-03-20T11:05:24;100530.09;;;10.05;41.90
47761;BME280;33524;55.434;38.520;2023-03-20T11:08:03;100552.19;;;10.41;39.90
47761;BME280;33524;55.434;38.520;2023-03-20T11:10:34;100547.25;;;10.23;40.80
47761;BME280;33524;55.434;38.520;2023-03-20T11:13:38;100545.69;;;10.34;39.61
47761;BME280;33524;55.434;38.520;2023-03-20T11:16:10;100539.03;;;10.15;40.23
47761;BME280;33524;55.434;38.520;2023-03-20T11:18:40;100539.66;;;10.06;40.15
47761;BME280;33524;55.434;38.520;2023-03-20T11:21:14;100541.16;;;10.36;39.64
47761;BME280;33524;55.434;38.520;2023-03-20T11:23:42;100536.72;;;10.23;39.48
47761;BME280;33524;55.434;38.520;2023-03-20T11:26:12;100530.72;;;10.21;39.53
47761;BME280;33524;55.434;38.520;2023-03-20T11:31:17;100522.91;;;9.94;44.10
47761;BME280;33524;55.434;38.520;2023-03-20T11:33:49;100522.00;;;9.42;42.04
47761;BME280;33524;55.434;38.520;2023-03-20T11:36:26;100527.78;;;9.07;43.68
47761;BME280;33524;55.434;38.520;2023-03-20T11:39:35;100520.53;;;8.55;44.08
47761;BME280;33524;55.434;38.520;2023-03-20T11:41:52;100520.69;;;7.95;46.05
47761;BME280;33524;55.434;38.520;2023-03-20T11:44:25;100522.31;;;7.67;45.99
47761;BME280;33524;55.434;38.520;2023-03-20T11:49:31;100521.28;;;7.39;46.16
47761;BME280;33524;55.434;38.520;2023-03-20T11:52:11;100514.72;;;7.32;46.74
47761;BME280;33524;55.434;38.520;2023-03-20T11:54:45;100512.47;;;7.26;46.45
47761;BME280;33524;55.434;38.520;2023-03-20T11:57:31;100506.97;;;7.15;47.00
47761;BME280;33524;55.434;38.520;2023-03-20T12:00:03;100506.56;;;7.06;47.24
47761;BME280;33524;55.434;38.520;2023-03-20T12:02:32;100495.16;;;7.23;49.13
47761;BME280;33524;55.434;38.520;2023-03-20T12:04:59;100497.72;;;6.93;50.78
47761;BME280;33524;55.434;38.520;2023-03-20T12:07:32;100498.97;;;7.02;48.71
47761;BME280;33524;55.434;38.520;2023-03-20T12:10:05;100491.75;;;7.07;49.62
47761;BME280;33524;55.434;38.520;2023-03-20T12:12:41;100482.97;;;7.83;52.04
47761;BME280;33524;55.434;38.520;2023-03-20T12:15:21;100485.72;;;7.21;50.27
47761;BME280;33524;55.434;38.520;2023-03-20T12:20:43;100473.97;;;7.28;50.46
47761;BME280;33524;55.434;38.520;2023-03-20T12:23:13;100484.94;;;7.35;50.04
47761;BME280;33524;55.434;38.520;2023-03-20T12:32:18;100469.78;;;7.70;49.94
47761;BME280;33524;55.434;38.520;2023-03-20T12:34:00;100465.97;;;7.90;49.44
47761;BME280;33524;55.434;38.520;2023-03-20T12:36:35;100465.31;;;8.01;48.72
47761;BME280;33524;55.434;38.520;2023-03-20T12:39:09;100455.50;;;8.04;48.69
47761;BME280;33524;55.434;38.520;2023-03-20T12:43:03;100463.06;;;7.95;48.48
47761;BME280;33524;55.434;38.520;2023-03-20T12:45:11;100457.63;;;7.69;49.31
47761;BME280;33524;55.434;38.520;2023-03-20T12:50:39;100444.63;;;7.67;50.06
47761;BME280;33524;55.434;38.520;2023-03-20T12:53:42;100446.19;;;7.56;49.43
47761;BME280;33524;55.434;38.520;2023-03-20T13:00:04;100442.41;;;7.31;49.11
47761;BME280;33524;55.434;38.520;2023-03-20T13:02:30;100443.72;;;7.08;50.63
47761;BME280;33524;55.434;38.520;2023-03-20T13:05:24;100442.50;;;6.83;51.73
47761;BME280;33524;55.434;38.520;2023-03-20T13:08:02;100435.59;;;6.66;50.78
47761;BME280;33524;55.434;38.520;2023-03-20T13:10:38;100432.50;;;6.60;50.61
47761;BME280;33524;55.434;38.520;2023-03-20T13:13:31;100432.41;;;6.45;51.37
47761;BME280;33524;55.434;38.520;2023-03-20T13:18:55;100426.25;;;6.31;52.57
47761;BME280;33524;55.434;38.520;2023-03-20T13:21:36;100422.28;;;6.23;52.18
47761;BME280;33524;55.434;38.520;2023-03-20T13:27:15;100409.22;;;5.90;53.77
47761;BME280;33524;55.434;38.520;2023-03-20T13:30:09;100410.37;;;5.84;55.21
47761;BME280;33524;55.434;38.520;2023-03-20T13:33:06;100394.53;;;5.72;56.02
47761;BME280;33524;55.434;38.520;2023-03-20T13:35:59;100395.34;;;5.72;56.17
47761;BME280;33524;55.434;38.520;2023-03-20T13:38:33;100397.38;;;5.67;55.68
47761;BME280;33524;55.434;38.520;2023-03-20T13:41:03;100396.41;;;5.52;55.59
47761;BME280;33524;55.434;38.520;2023-03-20T13:43:38;100398.47;;;5.45;55.52
47761;BME280;33524;55.434;38.520;2023-03-20T13:46:10;100397.03;;;5.40;54.73
47761;BME280;33524;55.434;38.520;2023-03-20T13:48:41;100389.22;;;5.40;56.59
47761;BME280;33524;55.434;38.520;2023-03-20T13:51:30;100387.91;;;5.31;57.39
47761;BME280;33524;55.434;38.520;2023-03-20T13:57:08;100383.31;;;5.19;56.53
47761;BME280;33524;55.434;38.520;2023-03-20T14:00:54;100358.00;;;4.86;58.31
47761;BME280;33524;55.434;38.520;2023-03-20T14:05:35;100363.91;;;4.90;58.12
47761;BME280;33524;55.434;38.520;2023-03-20T14:08:21;100373.78;;;4.83;57.95
47761;BME280;33524;55.434;38.520;2023-03-20T14:13:22;100369.81;;;4.76;58.74
47761;BME280;33524;55.434;38.520;2023-03-20T14:15:55;100366.28;;;4.77;58.30
47761;BME280;33524;55.434;38.520;2023-03-20T14:18:24;100366.50;;;4.72;58.97